sensor_id;sensor_type;location;lat;lon;timestamp;P1;durP1;ratioP1;P2;durP2;ratioP2
7398;SDS011;3740;50.700;7.184;2023-08-06T00:01:30;4.15;;;3.42;;
7398;SDS011;3740;50.700;7.184;2023-08-06T00:03:56;3.80;;;3.50;;
7398;SDS011;3740;50.700;7.184;2023-08-06T00:06:21;3.85;;;3.55;;
7398;SDS011;3740;50.700;7.184;2023-08-06T00:08:47;4.18;;;3.75;;
7398;SDS011;3740;50.700;7.184;2023-08-06T00:11:12;4.18;;;3.78;;
7398;SDS011;3740;50.700;7.184;2023-08-06T00:13:38;4.03;;;3.60;;
7398;SDS011;3740;50.700;7.184;2023-08-06T00:16:10;5.18;;;3.30;;
7398;SDS011;3740;50.700;7.184;2023-08-06T00:18:37;4.43;;;3.47;;
7398;SDS011;3740;50.700;7.184;2023-08-06T00:21:03;3.97;;;3.35;;
7398;SDS011;3740;50.700;7.184;2023-08-06T00:23:28;4.13;;;3.72;;
7398;SDS011;3740;50.700;7.184;2023-08-06T00:25:54;3.75;;;3.45;;
7398;SDS011;3740;50.700;7.184;2023-08-06T00:28:19;3.80;;;3.50;;
7398;SDS011;3740;50.700;7.184;2023-08-06T00:30:45;4.20;;;3.80;;
7398;SDS011;3740;50.700;7.184;2023-08-06T00:33:10;3.30;;;3.10;;
7398;SDS011;3740;50.700;7.184;2023-08-06T00:35:36;3.60;;;3.25;;
7398;SDS011;3740;50.700;7.184;2023-08-06T00:38:02;3.72;;;3.38;;
7398;SDS011;3740;50.700;7.184;2023-08-06T00:40:27;4.22;;;3.50;;
7398;SDS011;3740;50.700;7.184;2023-08-06T00:42:56;3.78;;;3.38;;
7398;SDS011;3740;50.700;7.184;2023-08-06T00:45:21;4.03;;;3.58;;
7398;SDS011;3740;50.700;7.184;2023-08-06T00:47:48;3.80;;;3.50;;
7398;SDS011;3740;50.700;7.184;2023-08-06T00:50:13;3.40;;;3.10;;
7398;SDS011;3740;50.700;7.184;2023-08-06T00:52:39;3.40;;;2.92;;
7398;SDS011;3740;50.700;7.184;2023-08-06T00:55:05;3.65;;;3.30;;
7398;SDS011;3740;50.700;7.184;2023-08-06T00:57:31;5.15;;;3.20;;
7398;SDS011;3740;50.700;7.184;2023-08-06T00:59:57;3.78;;;3.17;;
7398;SDS011;3740;50.700;7.184;2023-08-06T01:02:23;3.67;;;3.37;;
7398;SDS011;3740;50.700;7.184;2023-08-06T01:04:48;3.63;;;3.10;;
7398;SDS011;3740;50.700;7.184;2023-08-06T01:09:50;4.00;;;3.22;;
7398;SDS011;3740;50.700;7.184;2023-08-06T01:12:33;3.20;;;2.90;;
7398;SDS011;3740;50.700;7.184;2023-08-06T01:17:36;3.10;;;2.90;;
7398;SDS011;3740;50.700;7.184;2023-08-06T01:20:02;3.22;;;3.03;;
7398;SDS011;3740;50.700;7.184;2023-08-06T01:22:28;3.50;;;3.20;;
7398;SDS011;3740;50.700;7.184;2023-08-06T01:24:54;3.65;;;2.97;;
7398;SDS011;3740;50.700;7.184;2023-08-06T01:27:28;3.45;;;3.10;;
7398;SDS011;3740;50.700;7.184;2023-08-06T01:30:13;3.40;;;3.10;;
7398;SDS011;3740;50.700;7.184;2023-08-06T01:32:43;3.63;;;3.33;;
7398;SDS011;3740;50.700;7.184;2023-08-06T01:35:11;3.20;;;2.90;;
7398;SDS011;3740;50.700;7.184;2023-08-06T01:37:38;3.45;;;2.95;;
7398;SDS011;3740;50.700;7.184;2023-08-06T01:40:07;3.40;;;3.10;;
7398;SDS011;3740;50.700;7.184;2023-08-06T01:42:36;3.05;;;2.83;;
7398;SDS011;3740;50.700;7.184;2023-08-06T01:45:03;3.25;;;3.00;;
7398;SDS011;3740;50.700;7.184;2023-08-06T01:47:28;3.58;;;3.22;;
7398;SDS011;3740;50.700;7.184;2023-08-06T01:49:54;3.20;;;3.00;;
7398;SDS011;3740;50.700;7.184;2023-08-06T01:52:19;4.80;;;3.20;;
7398;SDS011;3740;50.700;7.184;2023-08-06T01:54:45;3.50;;;3.20;;
7398;SDS011;3740;50.700;7.184;2023-08-06T01:57:10;3.87;;;3.10;;
7398;SDS011;3740;50.700;7.184;2023-08-06T01:59:36;3.20;;;2.90;;
7398;SDS011;3740;50.700;7.184;2023-08-06T02:02:02;4.15;;;3.50;;
7398;SDS011;3740;50.700;7.184;2023-08-06T02:04:27;5.03;;;3.47;;
7398;SDS011;3740;50.700;7.184;2023-08-06T02:06:53;3.50;;;3.20;;
7398;SDS011;3740;50.700;7.184;2023-08-06T02:09:18;3.50;;;3.20;;
7398;SDS011;3740;50.700;7.184;2023-08-06T02:11:44;3.85;;;3.47;;
7398;SDS011;3740;50.700;7.184;2023-08-06T02:14:10;4.45;;;3.70;;
7398;SDS011;3740;50.700;7.184;2023-08-06T02:16:35;3.92;;;3.50;;
7398;SDS011;3740;50.700;7.184;2023-08-06T02:19:01;4.27;;;3.27;;
7398;SDS011;3740;50.700;7.184;2023-08-06T02:21:26;4.60;;;3.70;;
7398;SDS011;3740;50.700;7.184;2023-08-06T02:23:52;4.18;;;3.60;;
7398;SDS011;3740;50.700;7.184;2023-08-06T02:26:17;3.53;;;3.23;;
7398;SDS011;3740;50.700;7.184;2023-08-06T02:28:43;3.50;;;3.20;;
7398;SDS011;3740;50.700;7.184;2023-08-06T02:31:08;3.70;;;3.40;;
7398;SDS011;3740;50.700;7.184;2023-08-06T02:33:34;3.57;;;3.27;;
7398;SDS011;3740;50.700;7.184;2023-08-06T02:36:00;4.15;;;3.67;;
7398;SDS011;3740;50.700;7.184;2023-08-06T02:38:26;3.20;;;2.80;;
7398;SDS011;3740;50.700;7.184;2023-08-06T02:40:52;5.13;;;3.58;;
7398;SDS011;3740;50.700;7.184;2023-08-06T02:43:17;5.82;;;3.28;;
7398;SDS011;3740;50.700;7.184;2023-08-06T02:45:43;3.47;;;3.17;;
7398;SDS011;3740;50.700;7.184;2023-08-06T02:48:09;3.73;;;3.30;;
7398;SDS011;3740;50.700;7.184;2023-08-06T02:50:38;3.85;;;3.42;;
7398;SDS011;3740;50.700;7.184;2023-08-06T02:53:05;4.38;;;2.92;;
7398;SDS011;3740;50.700;7.184;2023-08-06T02:55:31;4.07;;;3.10;;
7398;SDS011;3740;50.700;7.184;2023-08-06T02:57:58;4.57;;;3.27;;
7398;SDS011;3740;50.700;7.184;2023-08-06T03:00:24;3.25;;;2.95;;
7398;SDS011;3740;50.700;7.184;2023-08-06T03:02:50;4.70;;;3.05;;
7398;SDS011;3740;50.700;7.184;2023-08-06T03:05:16;3.10;;;2.70;;
7398;SDS011;3740;50.700;7.184;2023-08-06T03:07:41;3.30;;;3.00;;
7398;SDS011;3740;50.700;7.184;2023-08-06T03:10:07;5.20;;;3.30;;
7398;SDS011;3740;50.700;7.184;2023-08-06T03:12:33;3.65;;;2.95;;
7398;SDS011;3740;50.700;7.184;2023-08-06T03:14:58;3.22;;;2.70;;
7398;SDS011;3740;50.700;7.184;2023-08-06T03:17:24;4.77;;;2.83;;
7398;SDS011;3740;50.700;7.184;2023-08-06T03:19:49;3.42;;;3.00;;
7398;SDS011;3740;50.700;7.184;2023-08-06T03:22:15;3.00;;;2.70;;
7398;SDS011;3740;50.700;7.184;2023-08-06T03:24:40;2.95;;;2.65;;
7398;SDS011;3740;50.700;7.184;2023-08-06T03:27:06;4.35;;;2.83;;
7398;SDS011;3740;50.700;7.184;2023-08-06T03:29:31;3.47;;;2.72;;
7398;SDS011;3740;50.700;7.184;2023-08-06T03:31:57;2.90;;;2.63;;
7398;SDS011;3740;50.700;7.184;2023-08-06T03:34:22;3.25;;;2.72;;
7398;SDS011;3740;50.700;7.184;2023-08-06T03:36:48;4.30;;;3.20;;
7398;SDS011;3740;50.700;7.184;2023-08-06T03:39:14;3.55;;;2.80;;
7398;SDS011;3740;50.700;7.184;2023-08-06T03:41:39;3.03;;;2.30;;
7398;SDS011;3740;50.700;7.184;2023-08-06T03:44:05;2.58;;;2.38;;
7398;SDS011;3740;50.700;7.184;2023-08-06T03:46:31;2.87;;;2.53;;
7398;SDS011;3740;50.700;7.184;2023-08-06T03:48:59;3.80;;;2.67;;
7398;SDS011;3740;50.700;7.184;2023-08-06T03:51:26;3.28;;;2.63;;
7398;SDS011;3740;50.700;7.184;2023-08-06T03:53:51;3.30;;;2.57;;
7398;SDS011;3740;50.700;7.184;2023-08-06T03:56:17;4.55;;;2.55;;
7398;SDS011;3740;50.700;7.184;2023-08-06T03:58:42;3.38;;;2.60;;
7398;SDS011;3740;50.700;7.184;2023-08-06T04:01:08;3.17;;;2.50;;
7398;SDS011;3740;50.700;7.184;2023-08-06T04:03:33;2.63;;;2.43;;
7398;SDS011;3740;50.700;7.184;2023-08-06T04:05:59;2.53;;;2.30;;
7398;SDS011;3740;50.700;7.184;2023-08-06T04:08:26;6.17;;;3.00;;
7398;SDS011;3740;50.700;7.184;2023-08-06T04:10:52;3.37;;;2.60;;
7398;SDS011;3740;50.700;7.184;2023-08-06T04:13:17;3.00;;;2.70;;
7398;SDS011;3740;50.700;7.184;2023-08-06T04:15:44;2.63;;;2.33;;
7398;SDS011;3740;50.700;7.184;2023-08-06T04:18:09;4.07;;;2.90;;
7398;SDS011;3740;50.700;7.184;2023-08-06T04:20:37;3.33;;;2.77;;
7398;SDS011;3740;50.700;7.184;2023-08-06T04:23:08;3.15;;;2.28;;
7398;SDS011;3740;50.700;7.184;2023-08-06T04:25:34;5.30;;;2.80;;
7398;SDS011;3740;50.700;7.184;2023-08-06T04:27:59;3.03;;;2.53;;
7398;SDS011;3740;50.700;7.184;2023-08-06T04:30:25;3.80;;;2.90;;
7398;SDS011;3740;50.700;7.184;2023-08-06T04:32:50;2.83;;;2.53;;
7398;SDS011;3740;50.700;7.184;2023-08-06T04:35:16;3.23;;;2.60;;
7398;SDS011;3740;50.700;7.184;2023-08-06T04:37:41;3.83;;;3.03;;
7398;SDS011;3740;50.700;7.184;2023-08-06T04:40:07;2.80;;;2.47;;
7398;SDS011;3740;50.700;7.184;2023-08-06T04:42:33;2.70;;;2.50;;
7398;SDS011;3740;50.700;7.184;2023-08-06T04:45:00;4.17;;;2.53;;
7398;SDS011;3740;50.700;7.184;2023-08-06T04:47:26;3.30;;;2.83;;
7398;SDS011;3740;50.700;7.184;2023-08-06T04:49:52;4.73;;;2.60;;
7398;SDS011;3740;50.700;7.184;2023-08-06T04:52:18;2.60;;;2.40;;
7398;SDS011;3740;50.700;7.184;2023-08-06T04:54:44;4.20;;;2.50;;
7398;SDS011;3740;50.700;7.184;2023-08-06T04:57:09;2.70;;;2.50;;
7398;SDS011;3740;50.700;7.184;2023-08-06T04:59:35;3.10;;;2.73;;
7398;SDS011;3740;50.700;7.184;2023-08-06T05:02:01;2.60;;;2.40;;
7398;SDS011;3740;50.700;7.184;2023-08-06T05:04:26;2.87;;;2.27;;
7398;SDS011;3740;50.700;7.184;2023-08-06T05:06:52;2.47;;;2.30;;
7398;SDS011;3740;50.700;7.184;2023-08-06T05:09:18;2.53;;;2.33;;
7398;SDS011;3740;50.700;7.184;2023-08-06T05:11:45;2.63;;;2.33;;
7398;SDS011;3740;50.700;7.184;2023-08-06T05:14:11;3.47;;;2.57;;
7398;SDS011;3740;50.700;7.184;2023-08-06T05:16:37;3.30;;;2.50;;
7398;SDS011;3740;50.700;7.184;2023-08-06T05:19:02;2.90;;;2.70;;
7398;SDS011;3740;50.700;7.184;2023-08-06T05:21:28;2.37;;;2.17;;
7398;SDS011;3740;50.700;7.184;2023-08-06T05:23:54;3.17;;;2.43;;
7398;SDS011;3740;50.700;7.184;2023-08-06T05:26:19;2.70;;;2.50;;
7398;SDS011;3740;50.700;7.184;2023-08-06T05:28:45;2.47;;;2.27;;
7398;SDS011;3740;50.700;7.184;2023-08-06T05:31:11;4.07;;;2.73;;
7398;SDS011;3740;50.700;7.184;2023-08-06T05:33:36;3.20;;;2.53;;
7398;SDS011;3740;50.700;7.184;2023-08-06T05:36:02;2.77;;;2.10;;
7398;SDS011;3740;50.700;7.184;2023-08-06T05:38:29;2.43;;;2.23;;
7398;SDS011;3740;50.700;7.184;2023-08-06T05:40:54;3.27;;;2.43;;
7398;SDS011;3740;50.700;7.184;2023-08-06T05:43:21;2.63;;;2.43;;
7398;SDS011;3740;50.700;7.184;2023-08-06T05:45:48;4.57;;;2.77;;
7398;SDS011;3740;50.700;7.184;2023-08-06T05:48:14;3.33;;;3.03;;
7398;SDS011;3740;50.700;7.184;2023-08-06T05:50:40;3.53;;;2.83;;
7398;SDS011;3740;50.700;7.184;2023-08-06T05:53:06;2.50;;;2.27;;
7398;SDS011;3740;50.700;7.184;2023-08-06T05:55:31;3.97;;;2.50;;
7398;SDS011;3740;50.700;7.184;2023-08-06T05:57:57;2.90;;;2.10;;
7398;SDS011;3740;50.700;7.184;2023-08-06T06:00:23;2.40;;;2.20;;
7398;SDS011;3740;50.700;7.184;2023-08-06T06:02:49;2.40;;;2.20;;
7398;SDS011;3740;50.700;7.184;2023-08-06T06:05:14;2.73;;;2.00;;
7398;SDS011;3740;50.700;7.184;2023-08-06T06:07:40;2.00;;;1.90;;
7398;SDS011;3740;50.700;7.184;2023-08-06T06:10:06;4.00;;;2.30;;
7398;SDS011;3740;50.700;7.184;2023-08-06T06:12:32;2.17;;;2.00;;
7398;SDS011;3740;50.700;7.184;2023-08-06T06:14:57;2.33;;;1.90;;
7398;SDS011;3740;50.700;7.184;2023-08-06T06:17:23;2.17;;;2.07;;
7398;SDS011;3740;50.700;7.184;2023-08-06T06:19:48;1.87;;;1.77;;
7398;SDS011;3740;50.700;7.184;2023-08-06T06:22:14;1.47;;;1.37;;
7398;SDS011;3740;50.700;7.184;2023-08-06T06:24:40;1.77;;;1.67;;
7398;SDS011;3740;50.700;7.184;2023-08-06T06:27:05;2.27;;;2.07;;
7398;SDS011;3740;50.700;7.184;2023-08-06T06:29:31;1.97;;;1.87;;
7398;SDS011;3740;50.700;7.184;2023-08-06T06:31:56;1.73;;;1.63;;
7398;SDS011;3740;50.700;7.184;2023-08-06T06:34:22;2.33;;;1.50;;
7398;SDS011;3740;50.700;7.184;2023-08-06T06:36:47;1.73;;;1.63;;
7398;SDS011;3740;50.700;7.184;2023-08-06T06:39:13;1.50;;;1.40;;
7398;SDS011;3740;50.700;7.184;2023-08-06T06:41:38;2.00;;;1.80;;
7398;SDS011;3740;50.700;7.184;2023-08-06T06:44:05;1.97;;;1.80;;
7398;SDS011;3740;50.700;7.184;2023-08-06T06:46:31;1.73;;;1.63;;
7398;SDS011;3740;50.700;7.184;2023-08-06T06:48:56;1.20;;;1.20;;
7398;SDS011;3740;50.700;7.184;2023-08-06T06:51:22;1.70;;;1.60;;
7398;SDS011;3740;50.700;7.184;2023-08-06T06:53:47;1.70;;;1.48;;
7398;SDS011;3740;50.700;7.184;2023-08-06T06:56:13;1.67;;;1.58;;
7398;SDS011;3740;50.700;7.184;2023-08-06T06:58:38;1.85;;;1.75;;
7398;SDS011;3740;50.700;7.184;2023-08-06T07:01:06;1.42;;;1.33;;
7398;SDS011;3740;50.700;7.184;2023-08-06T07:03:31;1.50;;;1.40;;
7398;SDS011;3740;50.700;7.184;2023-08-06T07:05:57;1.65;;;1.55;;
7398;SDS011;3740;50.700;7.184;2023-08-06T07:08:24;1.70;;;1.57;;
7398;SDS011;3740;50.700;7.184;2023-08-06T07:10:50;1.20;;;1.20;;
7398;SDS011;3740;50.700;7.184;2023-08-06T07:13:24;1.50;;;1.40;;
7398;SDS011;3740;50.700;7.184;2023-08-06T07:15:49;1.42;;;1.33;;
7398;SDS011;3740;50.700;7.184;2023-08-06T07:18:15;1.25;;;1.15;;
7398;SDS011;3740;50.700;7.184;2023-08-06T07:20:40;1.50;;;1.40;;
7398;SDS011;3740;50.700;7.184;2023-08-06T07:23:06;1.52;;;1.17;;
7398;SDS011;3740;50.700;7.184;2023-08-06T07:25:31;1.17;;;1.13;;
7398;SDS011;3740;50.700;7.184;2023-08-06T07:27:57;1.30;;;1.20;;
7398;SDS011;3740;50.700;7.184;2023-08-06T07:30:22;1.42;;;1.33;;
7398;SDS011;3740;50.700;7.184;2023-08-06T07:32:48;1.35;;;1.25;;
7398;SDS011;3740;50.700;7.184;2023-08-06T07:35:14;1.40;;;1.30;;
7398;SDS011;3740;50.700;7.184;2023-08-06T07:37:39;1.67;;;1.52;;
7398;SDS011;3740;50.700;7.184;2023-08-06T07:40:05;1.45;;;1.35;;
7398;SDS011;3740;50.700;7.184;2023-08-06T07:42:31;2.22;;;1.70;;
7398;SDS011;3740;50.700;7.184;2023-08-06T07:44:57;0.80;;;0.80;;
7398;SDS011;3740;50.700;7.184;2023-08-06T07:47:23;1.05;;;1.05;;
7398;SDS011;3740;50.700;7.184;2023-08-06T07:49:49;1.17;;;1.17;;
7398;SDS011;3740;50.700;7.184;2023-08-06T07:52:15;1.20;;;1.10;;
7398;SDS011;3740;50.700;7.184;2023-08-06T07:54:40;1.02;;;1.02;;
7398;SDS011;3740;50.700;7.184;2023-08-06T07:57:06;2.15;;;1.33;;
7398;SDS011;3740;50.700;7.184;2023-08-06T07:59:32;1.20;;;1.17;;
7398;SDS011;3740;50.700;7.184;2023-08-06T08:01:57;1.42;;;1.30;;
7398;SDS011;3740;50.700;7.184;2023-08-06T08:04:23;1.70;;;1.60;;
7398;SDS011;3740;50.700;7.184;2023-08-06T08:06:49;2.15;;;1.55;;
7398;SDS011;3740;50.700;7.184;2023-08-06T08:09:14;1.38;;;1.30;;
7398;SDS011;3740;50.700;7.184;2023-08-06T08:11:40;1.73;;;1.63;;
7398;SDS011;3740;50.700;7.184;2023-08-06T08:14:06;2.13;;;1.92;;
7398;SDS011;3740;50.700;7.184;2023-08-06T08:16:32;2.30;;;2.20;;
7398;SDS011;3740;50.700;7.184;2023-08-06T08:18:58;1.60;;;1.48;;
7398;SDS011;3740;50.700;7.184;2023-08-06T08:21:23;3.00;;;2.85;;
7398;SDS011;3740;50.700;7.184;2023-08-06T08:23:49;3.03;;;2.83;;
7398;SDS011;3740;50.700;7.184;2023-08-06T08:26:15;1.75;;;1.65;;
7398;SDS011;3740;50.700;7.184;2023-08-06T08:28:41;1.80;;;1.70;;
7398;SDS011;3740;50.700;7.184;2023-08-06T08:31:08;2.00;;;1.90;;
7398;SDS011;3740;50.700;7.184;2023-08-06T08:33:34;2.22;;;2.03;;
7398;SDS011;3740;50.700;7.184;2023-08-06T08:36:00;2.13;;;1.92;;
7398;SDS011;3740;50.700;7.184;2023-08-06T08:38:25;2.25;;;2.03;;
7398;SDS011;3740;50.700;7.184;2023-08-06T08:40:51;2.63;;;2.25;;
7398;SDS011;3740;50.700;7.184;2023-08-06T08:43:20;2.20;;;2.05;;
7398;SDS011;3740;50.700;7.184;2023-08-06T08:45:47;2.15;;;1.95;;
7398;SDS011;3740;50.700;7.184;2023-08-06T08:48:16;3.53;;;3.25;;
7398;SDS011;3740;50.700;7.184;2023-08-06T08:50:44;2.78;;;2.67;;
7398;SDS011;3740;50.700;7.184;2023-08-06T08:53:11;2.55;;;1.92;;
7398;SDS011;3740;50.700;7.184;2023-08-06T08:55:40;2.20;;;2.00;;
7398;SDS011;3740;50.700;7.184;2023-08-06T08:58:07;2.90;;;2.30;;
7398;SDS011;3740;50.700;7.184;2023-08-06T09:00:33;3.13;;;2.30;;
7398;SDS011;3740;50.700;7.184;2023-08-06T09:02:59;2.35;;;2.25;;
7398;SDS011;3740;50.700;7.184;2023-08-06T09:05:27;2.70;;;2.50;;
7398;SDS011;3740;50.700;7.184;2023-08-06T09:07:55;3.10;;;2.90;;
7398;SDS011;3740;50.700;7.184;2023-08-06T09:10:27;3.63;;;3.25;;
7398;SDS011;3740;50.700;7.184;2023-08-06T09:12:53;3.25;;;2.95;;
7398;SDS011;3740;50.700;7.184;2023-08-06T09:15:20;2.58;;;2.22;;
7398;SDS011;3740;50.700;7.184;2023-08-06T09:17:48;3.97;;;3.30;;
7398;SDS011;3740;50.700;7.184;2023-08-06T09:20:14;6.10;;;5.57;;
7398;SDS011;3740;50.700;7.184;2023-08-06T09:22:40;12.73;;;11.63;;
7398;SDS011;3740;50.700;7.184;2023-08-06T09:25:07;7.53;;;6.78;;
7398;SDS011;3740;50.700;7.184;2023-08-06T09:27:36;3.10;;;2.90;;
7398;SDS011;3740;50.700;7.184;2023-08-06T09:30:02;3.40;;;3.20;;
7398;SDS011;3740;50.700;7.184;2023-08-06T09:32:49;2.92;;;2.63;;
7398;SDS011;3740;50.700;7.184;2023-08-06T09:35:18;2.45;;;2.25;;
7398;SDS011;3740;50.700;7.184;2023-08-06T09:37:44;3.33;;;2.08;;
7398;SDS011;3740;50.700;7.184;2023-08-06T09:40:31;1.45;;;1.40;;
7398;SDS011;3740;50.700;7.184;2023-08-06T09:42:58;1.30;;;1.23;;
7398;SDS011;3740;50.700;7.184;2023-08-06T09:45:31;3.10;;;2.90;;
7398;SDS011;3740;50.700;7.184;2023-08-06T09:47:58;1.90;;;1.87;;
7398;SDS011;3740;50.700;7.184;2023-08-06T09:50:35;2.97;;;2.78;;
7398;SDS011;3740;50.700;7.184;2023-08-06T09:53:02;1.83;;;1.73;;
7398;SDS011;3740;50.700;7.184;2023-08-06T09:55:29;1.92;;;1.60;;
7398;SDS011;3740;50.700;7.184;2023-08-06T09:57:55;0.40;;;0.40;;
7398;SDS011;3740;50.700;7.184;2023-08-06T10:00:21;0.80;;;0.80;;
7398;SDS011;3740;50.700;7.184;2023-08-06T10:02:48;1.23;;;1.23;;
7398;SDS011;3740;50.700;7.184;2023-08-06T10:05:16;1.60;;;1.10;;
7398;SDS011;3740;50.700;7.184;2023-08-06T10:07:44;0.80;;;0.80;;
7398;SDS011;3740;50.700;7.184;2023-08-06T10:10:11;1.07;;;0.90;;
7398;SDS011;3740;50.700;7.184;2023-08-06T10:12:40;1.47;;;1.37;;
7398;SDS011;3740;50.700;7.184;2023-08-06T10:15:12;1.40;;;1.03;;
7398;SDS011;3740;50.700;7.184;2023-08-06T10:17:41;0.53;;;0.53;;
7398;SDS011;3740;50.700;7.184;2023-08-06T10:20:09;1.03;;;0.63;;
7398;SDS011;3740;50.700;7.184;2023-08-06T10:22:35;0.83;;;0.80;;
7398;SDS011;3740;50.700;7.184;2023-08-06T10:25:03;0.80;;;0.80;;
7398;SDS011;3740;50.700;7.184;2023-08-06T10:27:33;1.50;;;1.40;;
7398;SDS011;3740;50.700;7.184;2023-08-06T10:30:24;1.70;;;1.60;;
7398;SDS011;3740;50.700;7.184;2023-08-06T10:33:00;3.43;;;1.70;;
7398;SDS011;3740;50.700;7.184;2023-08-06T10:35:44;4.20;;;2.10;;
7398;SDS011;3740;50.700;7.184;2023-08-06T10:38:17;2.77;;;2.50;;
7398;SDS011;3740;50.700;7.184;2023-08-06T10:43:31;3.77;;;2.33;;
7398;SDS011;3740;50.700;7.184;2023-08-06T10:46:04;3.33;;;2.90;;
7398;SDS011;3740;50.700;7.184;2023-08-06T10:48:36;3.63;;;2.70;;
7398;SDS011;3740;50.700;7.184;2023-08-06T10:51:02;5.17;;;2.80;;
7398;SDS011;3740;50.700;7.184;2023-08-06T10:53:29;3.80;;;2.70;;
7398;SDS011;3740;50.700;7.184;2023-08-06T10:55:55;3.63;;;2.80;;
7398;SDS011;3740;50.700;7.184;2023-08-06T10:58:20;4.33;;;2.97;;
7398;SDS011;3740;50.700;7.184;2023-08-06T11:00:46;3.20;;;2.73;;
7398;SDS011;3740;50.700;7.184;2023-08-06T11:03:11;4.53;;;2.67;;
7398;SDS011;3740;50.700;7.184;2023-08-06T11:05:37;5.67;;;2.53;;
7398;SDS011;3740;50.700;7.184;2023-08-06T11:08:03;4.50;;;3.03;;
7398;SDS011;3740;50.700;7.184;2023-08-06T11:10:29;4.80;;;2.90;;
7398;SDS011;3740;50.700;7.184;2023-08-06T11:12:54;4.00;;;2.93;;
7398;SDS011;3740;50.700;7.184;2023-08-06T11:15:20;4.50;;;2.80;;
7398;SDS011;3740;50.700;7.184;2023-08-06T11:17:46;8.10;;;3.07;;
7398;SDS011;3740;50.700;7.184;2023-08-06T11:20:12;4.00;;;2.37;;
7398;SDS011;3740;50.700;7.184;2023-08-06T11:22:38;3.33;;;2.43;;
7398;SDS011;3740;50.700;7.184;2023-08-06T11:25:04;6.00;;;2.70;;
7398;SDS011;3740;50.700;7.184;2023-08-06T11:27:31;4.03;;;2.70;;
7398;SDS011;3740;50.700;7.184;2023-08-06T11:29:57;5.23;;;2.63;;
7398;SDS011;3740;50.700;7.184;2023-08-06T11:32:22;2.83;;;2.10;;
7398;SDS011;3740;50.700;7.184;2023-08-06T11:34:48;6.27;;;2.90;;
7398;SDS011;3740;50.700;7.184;2023-08-06T11:37:13;4.10;;;3.30;;
7398;SDS011;3740;50.700;7.184;2023-08-06T11:39:39;4.63;;;2.40;;
7398;SDS011;3740;50.700;7.184;2023-08-06T11:42:11;4.03;;;3.20;;
7398;SDS011;3740;50.700;7.184;2023-08-06T11:44:37;5.33;;;2.80;;
7398;SDS011;3740;50.700;7.184;2023-08-06T11:47:03;4.10;;;2.60;;
7398;SDS011;3740;50.700;7.184;2023-08-06T11:54:46;5.63;;;2.67;;
7398;SDS011;3740;50.700;7.184;2023-08-06T11:57:13;5.30;;;3.03;;
7398;SDS011;3740;50.700;7.184;2023-08-06T11:59:39;4.77;;;3.10;;
7398;SDS011;3740;50.700;7.184;2023-08-06T12:02:05;4.10;;;2.43;;
7398;SDS011;3740;50.700;7.184;2023-08-06T12:07:28;3.83;;;2.27;;
7398;SDS011;3740;50.700;7.184;2023-08-06T12:09:55;5.60;;;2.40;;
7398;SDS011;3740;50.700;7.184;2023-08-06T12:12:20;3.63;;;2.17;;
7398;SDS011;3740;50.700;7.184;2023-08-06T12:14:46;4.03;;;2.30;;
7398;SDS011;3740;50.700;7.184;2023-08-06T12:17:11;3.37;;;2.77;;
7398;SDS011;3740;50.700;7.184;2023-08-06T12:19:37;2.87;;;2.03;;
7398;SDS011;3740;50.700;7.184;2023-08-06T12:22:02;4.90;;;2.50;;
7398;SDS011;3740;50.700;7.184;2023-08-06T12:24:29;3.17;;;2.60;;
7398;SDS011;3740;50.700;7.184;2023-08-06T12:26:56;4.97;;;3.00;;
7398;SDS011;3740;50.700;7.184;2023-08-06T12:29:23;2.63;;;2.43;;
7398;SDS011;3740;50.700;7.184;2023-08-06T12:31:48;4.10;;;2.60;;
7398;SDS011;3740;50.700;7.184;2023-08-06T12:34:14;2.93;;;2.27;;
7398;SDS011;3740;50.700;7.184;2023-08-06T12:36:39;3.20;;;2.37;;
7398;SDS011;3740;50.700;7.184;2023-08-06T12:39:05;4.47;;;2.40;;
7398;SDS011;3740;50.700;7.184;2023-08-06T12:41:30;2.30;;;2.03;;
7398;SDS011;3740;50.700;7.184;2023-08-06T12:43:56;2.57;;;2.07;;
7398;SDS011;3740;50.700;7.184;2023-08-06T12:46:21;3.10;;;2.37;;
7398;SDS011;3740;50.700;7.184;2023-08-06T12:48:47;3.57;;;2.07;;
7398;SDS011;3740;50.700;7.184;2023-08-06T12:51:13;3.70;;;2.10;;
7398;SDS011;3740;50.700;7.184;2023-08-06T12:53:39;2.00;;;1.80;;
7398;SDS011;3740;50.700;7.184;2023-08-06T12:56:04;3.83;;;2.17;;
7398;SDS011;3740;50.700;7.184;2023-08-06T12:58:30;3.60;;;1.70;;
7398;SDS011;3740;50.700;7.184;2023-08-06T13:00:56;2.13;;;1.70;;
7398;SDS011;3740;50.700;7.184;2023-08-06T13:03:21;1.77;;;1.67;;
7398;SDS011;3740;50.700;7.184;2023-08-06T13:05:47;2.90;;;1.97;;
7398;SDS011;3740;50.700;7.184;2023-08-06T13:08:12;2.70;;;1.90;;
7398;SDS011;3740;50.700;7.184;2023-08-06T13:10:38;3.00;;;1.73;;
7398;SDS011;3740;50.700;7.184;2023-08-06T13:13:04;1.83;;;1.67;;
7398;SDS011;3740;50.700;7.184;2023-08-06T13:15:30;2.60;;;1.73;;
7398;SDS011;3740;50.700;7.184;2023-08-06T13:17:55;1.37;;;1.23;;
7398;SDS011;3740;50.700;7.184;2023-08-06T13:20:21;1.60;;;1.37;;
7398;SDS011;3740;50.700;7.184;2023-08-06T13:22:47;2.07;;;1.70;;
7398;SDS011;3740;50.700;7.184;2023-08-06T13:25:15;2.27;;;1.57;;
7398;SDS011;3740;50.700;7.184;2023-08-06T13:27:42;3.80;;;2.70;;
7398;SDS011;3740;50.700;7.184;2023-08-06T13:30:09;3.53;;;3.23;;
7398;SDS011;3740;50.700;7.184;2023-08-06T13:32:35;4.60;;;4.20;;
7398;SDS011;3740;50.700;7.184;2023-08-06T13:35:02;2.47;;;2.27;;
7398;SDS011;3740;50.700;7.184;2023-08-06T13:37:29;2.00;;;1.40;;
7398;SDS011;3740;50.700;7.184;2023-08-06T13:39:54;2.60;;;1.70;;
7398;SDS011;3740;50.700;7.184;2023-08-06T13:42:20;2.70;;;2.00;;
7398;SDS011;3740;50.700;7.184;2023-08-06T13:44:46;2.53;;;1.70;;
7398;SDS011;3740;50.700;7.184;2023-08-06T13:47:11;3.93;;;1.93;;
7398;SDS011;3740;50.700;7.184;2023-08-06T13:49:37;4.00;;;2.20;;
7398;SDS011;3740;50.700;7.184;2023-08-06T13:52:02;3.20;;;2.70;;
7398;SDS011;3740;50.700;7.184;2023-08-06T13:54:28;3.10;;;2.73;;
7398;SDS011;3740;50.700;7.184;2023-08-06T13:56:53;2.47;;;2.10;;
7398;SDS011;3740;50.700;7.184;2023-08-06T13:59:19;5.17;;;4.47;;
7398;SDS011;3740;50.700;7.184;2023-08-06T14:01:45;4.50;;;3.20;;
7398;SDS011;3740;50.700;7.184;2023-08-06T14:04:10;4.17;;;3.63;;
7398;SDS011;3740;50.700;7.184;2023-08-06T14:06:37;3.73;;;3.43;;
7398;SDS011;3740;50.700;7.184;2023-08-06T14:09:02;2.40;;;2.20;;
7398;SDS011;3740;50.700;7.184;2023-08-06T14:11:28;4.10;;;2.80;;
7398;SDS011;3740;50.700;7.184;2023-08-06T14:13:53;3.00;;;2.30;;
7398;SDS011;3740;50.700;7.184;2023-08-06T14:16:19;4.70;;;4.30;;
7398;SDS011;3740;50.700;7.184;2023-08-06T14:18:45;4.07;;;2.80;;
7398;SDS011;3740;50.700;7.184;2023-08-06T14:21:10;3.13;;;2.40;;
7398;SDS011;3740;50.700;7.184;2023-08-06T14:23:36;2.70;;;2.50;;
7398;SDS011;3740;50.700;7.184;2023-08-06T14:26:01;3.27;;;2.00;;
7398;SDS011;3740;50.700;7.184;2023-08-06T14:28:27;4.20;;;1.90;;
7398;SDS011;3740;50.700;7.184;2023-08-06T14:30:52;3.80;;;1.87;;
7398;SDS011;3740;50.700;7.184;2023-08-06T14:33:18;2.40;;;1.80;;
7398;SDS011;3740;50.700;7.184;2023-08-06T14:35:43;3.37;;;1.70;;
7398;SDS011;3740;50.700;7.184;2023-08-06T14:38:09;2.30;;;1.60;;
7398;SDS011;3740;50.700;7.184;2023-08-06T14:40:35;3.10;;;2.07;;
7398;SDS011;3740;50.700;7.184;2023-08-06T14:43:03;2.23;;;1.50;;
7398;SDS011;3740;50.700;7.184;2023-08-06T14:45:30;3.60;;;1.97;;
7398;SDS011;3740;50.700;7.184;2023-08-06T14:47:56;3.33;;;1.93;;
7398;SDS011;3740;50.700;7.184;2023-08-06T14:50:22;3.33;;;1.80;;
7398;SDS011;3740;50.700;7.184;2023-08-06T14:52:47;5.60;;;1.93;;
7398;SDS011;3740;50.700;7.184;2023-08-06T14:55:25;2.57;;;1.67;;
7398;SDS011;3740;50.700;7.184;2023-08-06T14:57:51;2.50;;;1.83;;
7398;SDS011;3740;50.700;7.184;2023-08-06T15:00:18;3.03;;;1.00;;
7398;SDS011;3740;50.700;7.184;2023-08-06T15:02:44;2.00;;;1.10;;
7398;SDS011;3740;50.700;7.184;2023-08-06T15:05:10;1.23;;;1.00;;
7398;SDS011;3740;50.700;7.184;2023-08-06T15:07:35;1.63;;;1.13;;
7398;SDS011;3740;50.700;7.184;2023-08-06T15:10:02;2.10;;;1.47;;
7398;SDS011;3740;50.700;7.184;2023-08-06T15:12:29;2.93;;;1.40;;
7398;SDS011;3740;50.700;7.184;2023-08-06T15:14:55;1.33;;;1.23;;
7398;SDS011;3740;50.700;7.184;2023-08-06T15:17:22;1.43;;;1.13;;
7398;SDS011;3740;50.700;7.184;2023-08-06T15:19:48;0.97;;;0.90;;
7398;SDS011;3740;50.700;7.184;2023-08-06T15:22:13;0.43;;;0.43;;
7398;SDS011;3740;50.700;7.184;2023-08-06T15:24:39;2.37;;;0.80;;
7398;SDS011;3740;50.700;7.184;2023-08-06T15:27:07;0.60;;;0.60;;